Maryland METAR Reports


Distance/Direction noted is from Ellicott City, MD as the crow flies

KCBE - Cumberland - 118 miles WNW
Updated: Thu, 10/02/2014 8:15 AM
Overcast
Overcast
 Wind from calm
Wind: Calm
Temperature: 59°F
Dew Point: 59°F
Humidity: 100%
Barometer: 30.17 inHg
Clouds: Overcast
Visibility: 4 miles
Cloud Details: Partly Cloudy 500 ft
Overcast 1300 ft
2014/10/02 12:15 KCBE 021215Z AUTO 00000KT 4SM SCT005 OVC013 15/15 A3017 RMK AO1
KHGR - Hagerstown - 57 miles NW
Updated: Thu, 10/02/2014 8:14 AM
Mist, Overcast
Mist, Overcast
 Wind from WNW
Wind: WNW 5 mph
Temperature: 57°F
Dew Point: 55°F
Humidity: 94%
Barometer: 30.14 inHg
Summary: Mist
Clouds: Overcast
Visibility: 2 miles
Cloud Details: Partly Cloudy 2900 ft
Overcast 3900 ft
2014/10/02 12:14 KHGR 021214Z 30004KT 2SM BR SCT029 OVC039 14/13 A3014 RMK AO2 T01390133
 
KFDK - Frederick - 34 miles NW
Updated: Thu, 10/02/2014 7:45 AM
Mist, Overcast
Mist, Overcast
 Wind from calm
Wind: Calm
Temperature: 59°F
Dew Point: 57°F
Humidity: 94%
Barometer: 30.17 inHg
Summary: Mist
Clouds: Overcast
Visibility: 3/4 mile
Cloud Details: Partly Cloudy 200 ft
Overcast 900 ft
2014/10/02 11:45 KFDK 021145Z 00000KT 3/4SM BR SCT002 OVC009 15/14 A3017
KGAI - Gaithersburg - 26 miles SW
Updated: Thu, 10/02/2014 8:15 AM
Overcast
Overcast
 Wind from calm
Wind: Calm
Temperature: 59°F
Dew Point: 57°F
Humidity: 94%
Barometer: 30.18 inHg
Clouds: Overcast
Visibility: 3 miles
Cloud Details: Overcast 4400 ft
2014/10/02 12:15 KGAI 021215Z 00000KT 3SM OVC044 15/14 A3018 RMK AO1
 
KBWI - BWI Airport - 15 miles SE
Updated: Thu, 10/02/2014 8:14 AM
Mist, Mostly cloudy
Mist, Mostly cloudy
 Wind from W
Wind: W 3 mph
Temperature: 61°F
Dew Point: 59°F
Humidity: 94%
Barometer: 30.13 inHg
Summary: Mist
Clouds: Mostly Cloudy
Visibility: 5 miles
Cloud Details: Partly Cloudy 1700 ft
Mostly Cloudy 3100 ft
Mostly Cloudy 6500 ft
2014/10/02 12:14 KBWI 021214Z 27003KT 5SM BR SCT017 BKN031 BKN065 16/15 A3013 RMK AO2
KNAK - Annapolis - 32 miles SSE
Updated: Thu, 10/02/2014 7:54 AM
Overcast
Overcast
 Wind from W
Wind: W 3 mph
Temperature: 63°F
Dew Point: 59°F
Humidity: 88%
Barometer: 30.13 inHg
Clouds: Overcast
Visibility: 8 miles
Cloud Details: Mostly Cloudy 2200 ft
Overcast 3000 ft
2014/10/02 11:54 KNAK 021154Z AUTO 26003KT 8SM BKN022 OVC030 17/15 A3013 RMK AO2 SLP205 T01670150 10183 20156 53017
 
KESN - Easton - 63 miles SE
Updated: Thu, 10/02/2014 7:50 AM
Mist, Mostly cloudy
Mist, Mostly cloudy
 Wind from NE
Wind: NE 5 mph
Temperature: 61°F
Dew Point: 61°F
Humidity: 100%
Barometer: 30.16 inHg
Summary: Mist
Clouds: Mostly Cloudy
Visibility: 3 miles
Cloud Details: Partly Cloudy 2800 ft
Mostly Cloudy 4500 ft
2014/10/02 11:50 KESN 021150Z 05004KT 3SM BR SCT028 BKN045 16/16 A3016
KSBY - Salisbury - 112 miles SE
Updated: Thu, 10/02/2014 7:54 AM
Mist, Few clouds
Mist, Few clouds
 Wind from WNW
Wind: WNW 5 mph
Temperature: 63°F
Dew Point: 57°F
Humidity: 83%
Barometer: 30.11 inHg
Summary: Mist
Clouds: Few Clouds
Visibility: 4 miles
Cloud Details: Few Clouds 4300 ft
2014/10/02 11:54 KSBY 021154Z 30004KT 4SM BR FEW043 17/14 A3011 RMK AO2 SLP200 T01670144 10167 20144 53015